Time;durP1;ratioP1;P1;durP2;ratioP2;P2;SDS_P1;SDS_P2;PMS_P1;PMS_P2;Temp;Humidity;BMP_temperature;BMP_pressure;BME280_temperature;BME280_humidity;BME280_pressure;Samples;Min_cycle;Max_cycle;Signal;HPM_P1;HPM_P2
2022/11/16 00:01:52;;;;;;;;;;;;;;;9.63;100.00;99861.13;6283637;22;19918;-82
2022/11/16 00:04:17;;;;;;;;;;;;;;;9.58;100.00;99857.38;6313205;22;20344;-84
2022/11/16 00:06:45;;;;;;;;;;;;;;;9.68;100.00;99858.78;6316158;22;19911;-81
2022/11/16 00:09:23;;;;;;;;;;;;;;;9.69;100.00;99852.50;6304746;22;19915;-82
2022/11/16 00:11:50;;;;;;;;;;;;;;;9.75;100.00;99859.75;6330953;22;19911;-82
2022/11/16 00:14:16;;;;;;;;;;;;;;;9.81;100.00;99844.97;6314526;22;19953;-84
2022/11/16 00:16:41;;;;;;;;;;;;;;;9.88;100.00;99853.88;6313976;22;19950;-82
2022/11/16 00:19:09;;;;;;;;;;;;;;;10.06;100.00;99848.31;6314716;22;19910;-82
2022/11/16 00:21:34;;;;;;;;;;;;;;;9.93;100.00;99846.25;6312233;22;20250;-80
2022/11/16 00:24:00;;;;;;;;;;;;;;;9.74;100.00;99836.91;6312648;22;19915;-83
2022/11/16 00:26:25;;;;;;;;;;;;;;;9.74;100.00;99831.63;6312496;22;20302;-83
2022/11/16 00:28:52;;;;;;;;;;;;;;;9.58;100.00;99813.19;6285597;22;19951;-83
2022/11/16 00:31:18;;;;;;;;;;;;;;;9.62;100.00;99808.38;6285021;22;20325;-82
2022/11/16 00:33:43;;;;;;;;;;;;;;;9.68;100.00;99805.88;6284698;22;19942;-84
2022/11/16 00:36:10;;;;;;;;;;;;;;;9.59;100.00;99809.56;6312403;22;19911;-83
2022/11/16 00:38:36;;;;;;;;;;;;;;;9.53;100.00;99815.53;6312041;22;19917;-81
2022/11/16 00:41:01;;;;;;;;;;;;;;;9.39;100.00;99803.03;6314935;22;19911;-84
2022/11/16 00:43:27;;;;;;;;;;;;;;;9.34;100.00;99797.44;6311603;22;19933;-82
2022/11/16 00:45:52;;;;;;;;;;;;;;;9.55;100.00;99800.31;6283428;22;19937;-80
2022/11/16 00:48:18;;;;;;;;;;;;;;;9.54;100.00;99788.09;6311764;22;20222;-82
2022/11/16 00:50:45;;;;;;;;;;;;;;;9.54;100.00;99785.47;6288266;22;19937;-79
2022/11/16 00:53:13;;;;;;;;;;;;;;;9.81;100.00;99779.66;6268244;22;19915;-82
2022/11/16 00:55:43;;;;;;;;;;;;;;;9.78;100.00;99777.34;6328666;22;19907;-81
2022/11/16 00:58:10;;;;;;;;;;;;;;;9.74;100.00;99768.13;6305972;22;19937;-78
2022/11/16 01:00:37;;;;;;;;;;;;;;;9.83;100.00;99767.09;6305625;22;19927;-79
2022/11/16 01:03:09;;;;;;;;;;;;;;;9.84;100.00;99758.13;6297916;22;19919;-78
2022/11/16 01:05:37;;;;;;;;;;;;;;;9.58;100.00;99765.56;6308251;22;19921;-82
2022/11/16 01:14:50;;;;;;;;;;;;;;;9.65;100.00;99761.25;6284958;22;19930;-79
2022/11/16 01:17:18;;;;;;;;;;;;;;;9.58;100.00;99752.34;6263174;22;19895;-80
2022/11/16 01:19:47;;;;;;;;;;;;;;;9.68;100.00;99752.94;6276495;22;19916;-79
2022/11/16 01:29:32;;;;;;;;;;;;;;;9.75;100.00;99743.31;6279601;22;19911;-82
2022/11/16 01:31:59;;;;;;;;;;;;;;;9.77;100.00;99740.50;6252438;22;20345;-82
2022/11/16 01:34:25;;;;;;;;;;;;;;;9.84;100.00;99728.22;6252622;22;19990;-81
2022/11/16 01:36:54;;;;;;;;;;;;;;;9.70;100.00;99721.88;6253204;22;19911;-81
2022/11/16 01:39:20;;;;;;;;;;;;;;;9.64;100.00;99724.38;6253012;22;19994;-83
2022/11/16 01:41:51;;;;;;;;;;;;;;;9.85;100.00;99727.19;6253018;22;19981;-80
2022/11/16 01:44:32;;;;;;;;;;;;;;;9.98;100.00;99726.59;6252645;22;19957;-79
2022/11/16 01:47:11;;;;;;;;;;;;;;;9.98;100.00;99731.91;6252016;22;19919;-82
2022/11/16 01:49:41;;;;;;;;;;;;;;;9.88;100.00;99722.38;6251735;22;19911;-81
2022/11/16 01:52:10;;;;;;;;;;;;;;;9.66;100.00;99712.63;6251651;22;19911;-79
2022/11/16 01:54:40;;;;;;;;;;;;;;;9.77;100.00;99704.28;6288513;22;19943;-78
2022/11/16 01:57:08;;;;;;;;;;;;;;;9.62;100.00;99707.84;6277096;22;19915;-79
2022/11/16 01:59:38;;;;;;;;;;;;;;;9.57;100.00;99695.16;6297976;22;19903;-84
2022/11/16 02:02:05;;;;;;;;;;;;;;;9.67;100.00;99703.69;6262006;22;19918;-82
2022/11/16 02:04:31;;;;;;;;;;;;;;;9.66;100.00;99694.09;6274131;22;19918;-80
2022/11/16 02:06:57;;;;;;;;;;;;;;;9.92;100.00;99700.84;6283525;22;19915;-79
2022/11/16 02:12:27;;;;;;;;;;;;;;;9.74;100.00;99670.22;6253803;22;19945;-79
2022/11/16 02:15:08;;;;;;;;;;;;;;;9.88;100.00;99662.53;6253031;22;20293;-80
2022/11/16 02:17:39;;;;;;;;;;;;;;;9.88;100.00;99657.25;6254800;22;19911;-80
2022/11/16 02:20:13;;;;;;;;;;;;;;;9.96;100.00;99662.44;6253943;22;19915;-82
2022/11/16 02:22:53;;;;;;;;;;;;;;;9.99;100.00;99664.72;6256081;22;19911;-82
2022/11/16 02:25:28;;;;;;;;;;;;;;;9.74;100.00;99662.28;6283822;22;19911;-81
2022/11/16 02:28:12;;;;;;;;;;;;;;;9.67;100.00;99656.06;6280830;22;20288;-83
2022/11/16 02:30:40;;;;;;;;;;;;;;;9.76;100.00;99659.47;6255229;22;19911;-83
2022/11/16 02:33:12;;;;;;;;;;;;;;;9.85;100.00;99661.03;6254766;22;19933;-82
2022/11/16 02:35:41;;;;;;;;;;;;;;;9.91;100.00;99662.16;6254822;22;19935;-84
2022/11/16 02:38:14;;;;;;;;;;;;;;;9.68;100.00;99652.41;6228624;22;19937;-84
2022/11/16 02:40:43;;;;;;;;;;;;;;;9.76;100.00;99657.66;6253889;22;19943;-84
2022/11/16 02:43:11;;;;;;;;;;;;;;;9.90;100.00;99661.34;6253043;22;19907;-80
2022/11/16 02:45:38;;;;;;;;;;;;;;;10.08;100.00;99655.69;6226960;22;19934;-81
2022/11/16 02:48:09;;;;;;;;;;;;;;;9.83;100.00;99648.00;6251857;22;19918;-78
2022/11/16 02:50:35;;;;;;;;;;;;;;;9.79;100.00;99645.88;6279167;22;20275;-80
2022/11/16 02:53:01;;;;;;;;;;;;;;;9.82;100.00;99653.47;6252291;22;20342;-83
2022/11/16 02:55:31;;;;;;;;;;;;;;;9.74;100.00;99646.41;6227353;22;20231;-82
2022/11/16 02:57:59;;;;;;;;;;;;;;;9.78;100.00;99638.94;6252348;22;19933;-83
2022/11/16 03:00:34;;;;;;;;;;;;;;;9.90;100.00;99642.81;6279260;22;19911;-81
2022/11/16 03:03:00;;;;;;;;;;;;;;;9.96;100.00;99634.16;6253941;22;19914;-82
2022/11/16 03:05:32;;;;;;;;;;;;;;;9.88;100.00;99635.03;6285898;22;19913;-81
2022/11/16 03:08:05;;;;;;;;;;;;;;;9.78;100.00;99631.81;6275826;22;19907;-81
2022/11/16 03:13:19;;;;;;;;;;;;;;;9.73;100.00;99644.78;6251625;22;20302;-83
2022/11/16 03:15:46;;;;;;;;;;;;;;;9.75;100.00;99628.72;6252133;22;19991;-81
2022/11/16 03:18:13;;;;;;;;;;;;;;;9.65;100.00;99620.19;6251596;22;19911;-81
2022/11/16 03:20:41;;;;;;;;;;;;;;;9.63;100.00;99609.81;6252242;22;19907;-83
2022/11/16 03:23:09;;;;;;;;;;;;;;;9.54;100.00;99610.06;6251850;22;19918;-83
2022/11/16 03:25:46;;;;;;;;;;;;;;;9.65;100.00;99621.03;6251800;22;19911;-81
2022/11/16 03:28:28;;;;;;;;;;;;;;;9.70;100.00;99613.38;6251230;22;19918;-81
2022/11/16 03:31:03;;;;;;;;;;;;;;;9.64;100.00;99619.41;6278712;22;19994;-84
2022/11/16 03:33:32;;;;;;;;;;;;;;;9.59;100.00;99621.75;6251218;22;19918;-82
2022/11/16 03:36:18;;;;;;;;;;;;;;;9.44;100.00;99607.66;6251336;22;20012;-83
2022/11/16 03:38:44;;;;;;;;;;;;;;;9.40;100.00;99598.41;6250988;22;20277;-81
2022/11/16 03:41:12;;;;;;;;;;;;;;;9.53;100.00;99596.00;6251418;22;19982;-83
2022/11/16 03:43:38;;;;;;;;;;;;;;;9.55;100.00;99596.63;6278228;22;19994;-81
2022/11/16 03:46:04;;;;;;;;;;;;;;;9.51;100.00;99597.97;6278706;22;20005;-80
2022/11/16 03:48:34;;;;;;;;;;;;;;;9.46;100.00;99597.72;6251869;22;19972;-82
2022/11/16 03:51:00;;;;;;;;;;;;;;;9.42;100.00;99599.06;6251806;22;19918;-83
2022/11/16 03:53:26;;;;;;;;;;;;;;;9.39;100.00;99596.75;6251637;22;19911;-81
2022/11/16 03:55:52;;;;;;;;;;;;;;;9.39;100.00;99588.00;6252105;22;19918;-83
2022/11/16 03:58:18;;;;;;;;;;;;;;;9.35;100.00;99590.19;6279372;22;19935;-81
2022/11/16 04:00:43;;;;;;;;;;;;;;;9.33;100.00;99592.19;6226802;22;19911;-81
2022/11/16 04:03:09;;;;;;;;;;;;;;;9.51;100.00;99587.41;6251881;22;19918;-81
2022/11/16 04:24:51;;;;;;;;;;;;;;;9.39;100.00;99588.84;6279899;22;19918;-83
2022/11/16 04:30:04;;;;;;;;;;;;;;;9.39;100.00;99591.47;6280314;22;19973;-81
2022/11/16 04:38:12;;;;;;;;;;;;;;;9.41;100.00;99576.28;6171966;22;19922;-83
2022/11/16 04:40:38;;;;;;;;;;;;;;;9.43;100.00;99579.56;6279069;22;19993;-81
2022/11/16 04:43:04;;;;;;;;;;;;;;;9.37;100.00;99580.25;6253043;22;20281;-80
2022/11/16 04:48:28;;;;;;;;;;;;;;;9.37;100.00;99574.97;6253878;22;19911;-80
2022/11/16 04:50:54;;;;;;;;;;;;;;;9.31;100.00;99567.75;6254179;22;20254;-80
2022/11/16 04:53:22;;;;;;;;;;;;;;;9.39;100.00;99574.78;6281124;22;19907;-81
2022/11/16 04:55:56;;;;;;;;;;;;;;;9.40;100.00;99564.03;6254752;22;19959;-82
2022/11/16 04:58:22;;;;;;;;;;;;;;;9.41;100.00;99560.41;6281971;22;19911;-82
2022/11/16 05:00:48;;;;;;;;;;;;;;;9.54;100.00;99560.63;6254857;22;19911;-81
2022/11/16 05:03:13;;;;;;;;;;;;;;;9.53;100.00;99561.63;6282951;22;19911;-82
2022/11/16 05:05:39;;;;;;;;;;;;;;;9.56;100.00;99558.63;6254087;22;19911;-82
2022/11/16 05:08:04;;;;;;;;;;;;;;;9.42;100.00;99556.75;6253753;22;20392;-80
2022/11/16 05:10:31;;;;;;;;;;;;;;;9.34;100.00;99559.47;6253654;22;19911;-80
2022/11/16 05:12:56;;;;;;;;;;;;;;;9.27;100.00;99553.25;6253777;22;20334;-81
2022/11/16 05:15:23;;;;;;;;;;;;;;;9.29;100.00;99556.53;6253201;22;19973;-84
2022/11/16 05:17:49;;;;;;;;;;;;;;;9.31;100.00;99554.53;6253772;22;19915;-81
2022/11/16 05:23:04;;;;;;;;;;;;;;;9.28;100.00;99546.94;6253026;22;19912;-80
2022/11/16 05:25:32;;;;;;;;;;;;;;;9.30;100.00;99537.84;6253378;22;20287;-84
2022/11/16 05:27:59;;;;;;;;;;;;;;;9.28;100.00;99533.72;6262007;22;20309;-81
2022/11/16 05:30:25;;;;;;;;;;;;;;;9.25;100.00;99547.28;6264280;22;19907;-80
2022/11/16 05:32:50;;;;;;;;;;;;;;;9.25;100.00;99544.66;6264469;22;20310;-82
2022/11/16 05:35:18;;;;;;;;;;;;;;;9.23;100.00;99538.72;6260670;22;19911;-82
2022/11/16 05:37:44;;;;;;;;;;;;;;;9.26;100.00;99543.66;6262382;22;19915;-82
2022/11/16 05:40:10;;;;;;;;;;;;;;;9.19;100.00;99542.72;6289955;22;19915;-84
2022/11/16 05:42:48;;;;;;;;;;;;;;;9.22;100.00;99534.44;6262299;22;19918;-83
2022/11/16 05:45:14;;;;;;;;;;;;;;;9.26;100.00;99530.44;6257976;22;20962;-81
2022/11/16 05:47:39;;;;;;;;;;;;;;;9.18;100.00;99533.16;6255692;22;19907;-83
2022/11/16 05:50:05;;;;;;;;;;;;;;;9.29;100.00;99515.03;6282181;22;19907;-81
2022/11/16 05:52:36;;;;;;;;;;;;;;;9.23;100.00;99520.22;6256653;22;19911;-87
2022/11/16 05:55:10;;;;;;;;;;;;;;;9.26;100.00;99517.22;6288105;22;20310;-86
2022/11/16 05:57:41;;;;;;;;;;;;;;;9.30;100.00;99515.88;6230526;22;19942;-83
2022/11/16 06:00:08;;;;;;;;;;;;;;;9.24;100.00;99519.22;6256202;22;20326;-85
2022/11/16 06:02:40;;;;;;;;;;;;;;;9.23;100.00;99499.91;6291715;22;19910;-85
2022/11/16 06:05:06;;;;;;;;;;;;;;;9.20;100.00;99512.66;6270166;22;19903;-83
2022/11/16 06:07:32;;;;;;;;;;;;;;;9.16;100.00;99512.19;6254848;22;19950;-86
2022/11/16 06:09:58;;;;;;;;;;;;;;;9.22;100.00;99514.09;6252279;22;20330;-85
2022/11/16 06:12:23;;;;;;;;;;;;;;;9.12;100.00;99507.41;6252593;22;19918;-84
2022/11/16 06:14:49;;;;;;;;;;;;;;;9.16;100.00;99512.19;6227015;22;19911;-85
2022/11/16 06:17:14;;;;;;;;;;;;;;;9.13;100.00;99506.41;6253020;22;19915;-82
2022/11/16 06:19:41;;;;;;;;;;;;;;;9.16;100.00;99498.13;6253643;22;19907;-82
2022/11/16 06:22:06;;;;;;;;;;;;;;;9.08;100.00;99500.88;6253574;22;19915;-86
2022/11/16 06:24:33;;;;;;;;;;;;;;;9.10;100.00;99506.78;6253819;22;19915;-85
2022/11/16 06:26:58;;;;;;;;;;;;;;;9.08;100.00;99512.22;6280528;22;19911;-88
2022/11/16 06:29:24;;;;;;;;;;;;;;;9.07;100.00;99504.50;6252608;22;19911;-83
2022/11/16 06:31:51;;;;;;;;;;;;;;;9.00;100.00;99508.84;6251970;22;19907;-87
2022/11/16 06:34:16;;;;;;;;;;;;;;;8.98;100.00;99511.66;6251434;22;20281;-86
2022/11/16 06:36:42;;;;;;;;;;;;;;;9.03;100.00;99506.66;6278810;22;19915;-86
2022/11/16 06:39:07;;;;;;;;;;;;;;;9.06;100.00;99495.75;6251573;22;19915;-86
2022/11/16 06:41:35;;;;;;;;;;;;;;;9.05;100.00;99493.28;6251736;22;19919;-86
2022/11/16 06:44:01;;;;;;;;;;;;;;;9.01;100.00;99494.63;6252015;22;19911;-88
2022/11/16 06:46:32;;;;;;;;;;;;;;;9.04;100.00;99499.56;6252069;22;19974;-83
2022/11/16 06:48:57;;;;;;;;;;;;;;;9.04;100.00;99499.56;6252879;22;19918;-87
2022/11/16 06:51:25;;;;;;;;;;;;;;;9.01;100.00;99505.22;6280147;22;19982;-86
2022/11/16 06:53:51;;;;;;;;;;;;;;;9.02;100.00;99490.97;6278727;22;19911;-85
2022/11/16 06:56:21;;;;;;;;;;;;;;;9.06;100.00;99481.69;6252327;22;19911;-87
2022/11/16 06:58:56;;;;;;;;;;;;;;;9.10;100.00;99483.00;6251534;22;19914;-84
2022/11/16 07:01:23;;;;;;;;;;;;;;;9.14;100.00;99473.72;6249677;22;19915;-84
2022/11/16 07:03:52;;;;;;;;;;;;;;;9.26;100.00;99477.56;6251700;22;19913;-86
2022/11/16 07:06:18;;;;;;;;;;;;;;;9.20;100.00;99457.97;6250204;22;19938;-85
2022/11/16 07:08:44;;;;;;;;;;;;;;;9.28;100.00;99449.94;6250450;22;19993;-86
2022/11/16 07:11:11;;;;;;;;;;;;;;;9.44;100.00;99448.97;6223284;22;19911;-84
2022/11/16 07:13:37;;;;;;;;;;;;;;;9.57;100.00;99449.16;6251278;22;19930;-86
2022/11/16 07:16:05;;;;;;;;;;;;;;;9.68;100.00;99448.69;6250737;22;20290;-86
2022/11/16 07:18:32;;;;;;;;;;;;;;;9.52;100.00;99445.41;6226284;22;19911;-87
2022/11/16 07:20:57;;;;;;;;;;;;;;;9.79;100.00;99461.47;6225774;22;20377;-85
2022/11/16 07:23:22;;;;;;;;;;;;;;;9.82;100.00;99452.34;6277520;22;19997;-86
2022/11/16 07:25:49;;;;;;;;;;;;;;;9.68;100.00;99451.34;6251425;22;19972;-88
2022/11/16 07:28:24;;;;;;;;;;;;;;;9.73;100.00;99448.16;6227700;22;19911;-86
2022/11/16 07:30:52;;;;;;;;;;;;;;;9.52;100.00;99440.94;6249720;22;19910;-85
2022/11/16 07:33:24;;;;;;;;;;;;;;;9.46;100.00;99441.66;6267875;22;19978;-86
2022/11/16 07:36:12;;;;;;;;;;;;;;;9.53;100.00;99432.00;6224951;22;19922;-86
2022/11/16 07:38:37;;;;;;;;;;;;;;;9.53;100.00;99429.38;6263000;22;19911;-86
2022/11/16 07:41:04;;;;;;;;;;;;;;;9.67;100.00;99433.84;6287568;22;19922;-86
2022/11/16 07:43:35;;;;;;;;;;;;;;;9.83;100.00;99424.88;6257494;22;20254;-86
2022/11/16 07:46:15;;;;;;;;;;;;;;;9.86;100.00;99437.75;6253023;22;19918;-87
2022/11/16 07:48:44;;;;;;;;;;;;;;;10.26;100.00;99436.44;6252975;22;19993;-86
2022/11/16 07:51:16;;;;;;;;;;;;;;;10.90;100.00;99411.59;6281607;22;19914;-88
2022/11/16 07:53:52;;;;;;;;;;;;;;;10.95;100.00;99423.47;6253499;22;19911;-86
2022/11/16 07:56:17;;;;;;;;;;;;;;;10.90;100.00;99447.91;6278692;22;19915;-86
2022/11/16 07:58:44;;;;;;;;;;;;;;;11.19;100.00;99457.53;6278776;22;19922;-86
2022/11/16 08:01:16;;;;;;;;;;;;;;;10.81;100.00;99467.59;6279123;22;20234;-86
2022/11/16 08:03:44;;;;;;;;;;;;;;;10.72;100.00;99492.56;6251816;22;20376;-86
2022/11/16 08:06:13;;;;;;;;;;;;;;;10.52;100.00;99497.66;6256623;22;20385;-87
2022/11/16 08:08:40;;;;;;;;;;;;;;;10.34;100.00;99507.84;6261321;22;19917;-87
2022/11/16 08:11:06;;;;;;;;;;;;;;;10.25;100.00;99516.88;6262535;22;19931;-85
2022/11/16 08:13:33;;;;;;;;;;;;;;;10.08;100.00;99532.09;6291169;22;19911;-88
2022/11/16 08:16:00;;;;;;;;;;;;;;;9.95;100.00;99544.31;6267617;22;19911;-87
2022/11/16 08:18:27;;;;;;;;;;;;;;;9.91;100.00;99545.72;6277973;22;19903;-86
2022/11/16 08:20:52;;;;;;;;;;;;;;;9.91;100.00;99543.88;6305360;22;20033;-87
2022/11/16 08:23:18;;;;;;;;;;;;;;;9.98;100.00;99525.44;6274549;22;20010;-87
2022/11/16 08:25:43;;;;;;;;;;;;;;;9.96;100.00;99490.41;6258163;22;19899;-86
2022/11/16 08:28:10;;;;;;;;;;;;;;;10.02;100.00;99501.06;6282785;22;19934;-86
2022/11/16 08:30:39;;;;;;;;;;;;;;;10.15;100.00;99495.16;6257978;22;19982;-82
2022/11/16 08:33:10;;;;;;;;;;;;;;;10.13;100.00;99481.25;6232040;22;19922;-82
2022/11/16 08:35:41;;;;;;;;;;;;;;;10.16;100.00;99459.75;6257040;22;19916;-83
2022/11/16 08:38:07;;;;;;;;;;;;;;;10.24;100.00;99475.53;6252995;22;19937;-83
2022/11/16 08:40:34;;;;;;;;;;;;;;;10.40;100.00;99480.63;6280869;22;20250;-80
2022/11/16 08:42:59;;;;;;;;;;;;;;;10.43;100.00;99482.06;6280343;22;19907;-82
2022/11/16 08:45:26;;;;;;;;;;;;;;;10.38;100.00;99474.66;6254256;22;19914;-83
2022/11/16 08:47:52;;;;;;;;;;;;;;;10.41;100.00;99479.59;6253212;22;19911;-82
2022/11/16 08:50:19;;;;;;;;;;;;;;;10.46;100.00;99482.50;6251483;22;19911;-81
2022/11/16 08:52:46;;;;;;;;;;;;;;;10.43;100.00;99469.66;6253184;22;19967;-82
2022/11/16 08:55:12;;;;;;;;;;;;;;;10.68;100.00;99465.63;6252751;22;19957;-82
2022/11/16 08:57:39;;;;;;;;;;;;;;;10.58;100.00;99459.81;6253097;22;19907;-82
2022/11/16 09:00:10;;;;;;;;;;;;;;;10.57;100.00;99450.22;6254003;22;19942;-81
2022/11/16 09:02:35;;;;;;;;;;;;;;;10.67;100.00;99455.22;6281134;22;19911;-82
2022/11/16 09:05:01;;;;;;;;;;;;;;;10.73;100.00;99455.31;6280910;22;19922;-82
2022/11/16 09:07:26;;;;;;;;;;;;;;;10.60;100.00;99447.22;6279757;22;19911;-82
2022/11/16 09:09:52;;;;;;;;;;;;;;;10.72;100.00;99445.69;6279179;22;19939;-82
2022/11/16 09:12:17;;;;;;;;;;;;;;;10.77;100.00;99442.50;6280113;22;19911;-83
2022/11/16 09:14:43;;;;;;;;;;;;;;;10.63;100.00;99441.53;6252310;22;19915;-82
2022/11/16 09:17:08;;;;;;;;;;;;;;;10.60;100.00;99447.22;6252928;22;20224;-83
2022/11/16 09:19:34;;;;;;;;;;;;;;;10.67;100.00;99441.97;6279137;22;19957;-81
2022/11/16 09:21:59;;;;;;;;;;;;;;;10.80;100.00;99426.22;6278814;22;20335;-84
2022/11/16 09:24:24;;;;;;;;;;;;;;;10.80;100.00;99419.06;6253372;22;19949;-82
2022/11/16 09:26:50;;;;;;;;;;;;;;;10.70;100.00;99429.19;6279633;22;20280;-84
2022/11/16 09:29:15;;;;;;;;;;;;;;;10.63;100.00;99436.25;6252588;22;19911;-83
2022/11/16 09:31:42;;;;;;;;;;;;;;;10.66;100.00;99441.16;6251598;22;19911;-85
2022/11/16 09:34:08;;;;;;;;;;;;;;;10.69;100.00;99439.94;6279288;22;19965;-84
2022/11/16 09:36:34;;;;;;;;;;;;;;;10.84;100.00;99441.53;6279848;22;19915;-84
2022/11/16 09:38:59;;;;;;;;;;;;;;;11.04;100.00;99441.69;6279766;22;19995;-85
2022/11/16 09:41:25;;;;;;;;;;;;;;;11.29;100.00;99442.09;6280799;22;20303;-85
2022/11/16 09:43:52;;;;;;;;;;;;;;;11.40;100.00;99433.63;6285875;22;20204;-87
2022/11/16 09:46:38;;;;;;;;;;;;;;;11.41;100.00;99440.56;6285301;22;19907;-82
2022/11/16 09:49:09;;;;;;;;;;;;;;;11.52;100.00;99442.69;6280706;22;19915;-84
2022/11/16 09:51:36;;;;;;;;;;;;;;;11.45;100.00;99441.81;6279305;22;19914;-86
2022/11/16 09:54:04;;;;;;;;;;;;;;;11.37;100.00;99453.38;6227389;22;19912;-84
2022/11/16 09:56:31;;;;;;;;;;;;;;;11.22;100.00;99454.50;6279955;22;19929;-84
2022/11/16 09:59:08;;;;;;;;;;;;;;;11.18;100.00;99461.19;6279475;22;19911;-84
2022/11/16 10:01:36;;;;;;;;;;;;;;;11.10;100.00;99456.03;6279329;22;19911;-83
2022/11/16 10:04:12;;;;;;;;;;;;;;;11.07;100.00;99456.41;6252627;22;19918;-86
2022/11/16 10:06:46;;;;;;;;;;;;;;;11.01;100.00;99450.03;6279514;22;19915;-85
2022/11/16 10:09:12;;;;;;;;;;;;;;;10.87;100.00;99443.78;6279220;22;20032;-84
2022/11/16 10:11:49;;;;;;;;;;;;;;;10.90;100.00;99442.63;6278913;22;19907;-84
2022/11/16 10:14:34;;;;;;;;;;;;;;;11.02;100.00;99429.66;6279327;22;19911;-84
2022/11/16 10:17:25;;;;;;;;;;;;;;;11.06;100.00;99430.91;6279820;22;19911;-84
2022/11/16 10:20:00;;;;;;;;;;;;;;;11.15;100.00;99421.78;6275076;22;19911;-83
2022/11/16 10:22:36;;;;;;;;;;;;;;;11.16;100.00;99415.50;6279870;22;19918;-82
2022/11/16 10:25:14;;;;;;;;;;;;;;;11.23;100.00;99413.72;6281531;22;19911;-85
2022/11/16 10:27:41;;;;;;;;;;;;;;;11.14;100.00;99406.88;6282241;22;19995;-84
2022/11/16 10:30:17;;;;;;;;;;;;;;;11.03;100.00;99397.66;6282635;22;19907;-83
2022/11/16 10:32:48;;;;;;;;;;;;;;;11.04;100.00;99390.50;6284025;22;19911;-83
2022/11/16 10:35:21;;;;;;;;;;;;;;;11.00;100.00;99383.97;6281849;22;19919;-83
2022/11/16 10:37:48;;;;;;;;;;;;;;;10.93;100.00;99388.38;6280898;22;19915;-81
2022/11/16 10:40:28;;;;;;;;;;;;;;;11.04;100.00;99374.59;6254460;22;19994;-82
2022/11/16 10:43:12;;;;;;;;;;;;;;;11.09;100.00;99366.88;6255814;22;19915;-84
2022/11/16 10:46:01;;;;;;;;;;;;;;;10.97;100.00;99373.75;6256976;22;19907;-82
2022/11/16 10:48:40;;;;;;;;;;;;;;;11.03;100.00;99365.00;6255294;22;19915;-82
2022/11/16 10:51:06;;;;;;;;;;;;;;;11.15;100.00;99360.81;6257740;22;19911;-82
2022/11/16 10:53:33;;;;;;;;;;;;;;;11.30;100.00;99367.63;6282573;22;19911;-83
2022/11/16 10:56:14;;;;;;;;;;;;;;;11.42;100.00;99357.31;6282389;22;20196;-82
2022/11/16 10:58:47;;;;;;;;;;;;;;;11.32;100.00;99355.00;6284981;22;20216;-82
2022/11/16 11:01:12;;;;;;;;;;;;;;;11.34;100.00;99338.88;6257363;22;20068;-82
2022/11/16 11:03:38;;;;;;;;;;;;;;;11.48;100.00;99343.25;6282560;22;19922;-84
2022/11/16 11:06:03;;;;;;;;;;;;;;;11.46;100.00;99329.38;6279638;22;20289;-81
2022/11/16 11:08:29;;;;;;;;;;;;;;;11.59;100.00;99321.47;6280597;22;19982;-84
2022/11/16 11:14:09;;;;;;;;;;;;;;;11.76;100.00;99324.63;6283795;22;19984;-85
2022/11/16 11:16:34;;;;;;;;;;;;;;;11.76;100.00;99316.66;6282375;22;19918;-84
2022/11/16 11:19:23;;;;;;;;;;;;;;;11.54;100.00;99307.13;6258336;22;19911;-83
2022/11/16 11:21:49;;;;;;;;;;;;;;;11.58;100.00;99309.22;6283650;22;19911;-83
2022/11/16 11:24:17;;;;;;;;;;;;;;;11.58;100.00;99309.22;6284029;22;19973;-82
2022/11/16 11:26:47;;;;;;;;;;;;;;;11.77;100.00;99308.50;6282641;22;20163;-83
2022/11/16 11:29:22;;;;;;;;;;;;;;;11.73;100.00;99312.56;6255273;22;19977;-84
2022/11/16 11:31:51;;;;;;;;;;;;;;;11.71;100.00;99314.59;6283205;22;19918;-83
2022/11/16 11:34:31;;;;;;;;;;;;;;;11.65;100.00;99312.72;6284217;22;19910;-85
2022/11/16 11:37:01;;;;;;;;;;;;;;;11.55;100.00;99303.47;6283438;22;19918;-85
2022/11/16 11:39:28;;;;;;;;;;;;;;;11.41;100.00;99307.91;6281647;22;19910;-83
2022/11/16 11:42:22;;;;;;;;;;;;;;;11.51;100.00;99303.06;6282599;22;19918;-84
2022/11/16 11:44:53;;;;;;;;;;;;;;;11.46;100.00;99305.50;6249170;22;19990;-81
2022/11/16 11:47:18;;;;;;;;;;;;;;;11.51;100.00;99296.94;6257068;22;19911;-83
2022/11/16 11:49:48;;;;;;;;;;;;;;;11.64;100.00;99284.53;6257054;22;20005;-84
2022/11/16 11:52:24;;;;;;;;;;;;;;;11.82;100.00;99284.84;6286194;22;19911;-83
2022/11/16 11:54:51;;;;;;;;;;;;;;;11.96;100.00;99284.88;6286355;22;19933;-83
2022/11/16 11:57:20;;;;;;;;;;;;;;;12.08;100.00;99284.06;6284159;22;20247;-83
2022/11/16 11:59:47;;;;;;;;;;;;;;;12.07;100.00;99292.22;6277767;22;19975;-85
2022/11/16 12:02:21;;;;;;;;;;;;;;;12.25;100.00;99289.81;6289748;22;19915;-88
2022/11/16 12:04:46;;;;;;;;;;;;;;;12.04;100.00;99282.00;6295150;22;19934;-89
2022/11/16 12:07:27;;;;;;;;;;;;;;;12.01;100.00;99277.09;6294310;22;19911;-88
2022/11/16 12:10:12;;;;;;;;;;;;;;;11.84;100.00;99274.00;6295015;22;19918;-88
2022/11/16 12:12:43;;;;;;;;;;;;;;;11.77;100.00;99267.84;6293806;22;19918;-87
2022/11/16 12:15:21;;;;;;;;;;;;;;;11.68;100.00;99264.53;6266009;22;19955;-88
2022/11/16 12:17:49;;;;;;;;;;;;;;;11.71;100.00;99261.53;6269493;22;19955;-86
2022/11/16 12:20:18;;;;;;;;;;;;;;;11.74;100.00;99261.13;6295731;22;19911;-88
2022/11/16 12:22:46;;;;;;;;;;;;;;;11.73;100.00;99256.03;6244874;22;20142;-88
2022/11/16 12:25:15;;;;;;;;;;;;;;;11.74;100.00;99253.16;6297779;22;19899;-90
2022/11/16 12:28:02;;;;;;;;;;;;;;;11.77;100.00;99255.41;6271742;22;19911;-86
2022/11/16 12:30:32;;;;;;;;;;;;;;;12.03;100.00;99243.22;6198405;22;20036;-89
2022/11/16 12:33:09;;;;;;;;;;;;;;;12.03;100.00;99240.56;6274346;22;19914;-89
2022/11/16 12:35:47;;;;;;;;;;;;;;;12.03;100.00;99230.72;6297494;22;19899;-87
2022/11/16 12:38:28;;;;;;;;;;;;;;;12.07;100.00;99233.81;6298119;22;19959;-87
2022/11/16 12:40:53;;;;;;;;;;;;;;;12.06;100.00;99237.50;6301358;22;19895;-85
2022/11/16 12:43:19;;;;;;;;;;;;;;;12.07;100.00;99234.63;6300967;22;19918;-87
2022/11/16 12:45:56;;;;;;;;;;;;;;;12.07;100.00;99233.81;6297819;22;19934;-89
2022/11/16 12:48:40;;;;;;;;;;;;;;;12.17;100.00;99239.53;6298217;22;19915;-86
2022/11/16 12:51:08;;;;;;;;;;;;;;;12.06;100.00;99234.84;6295236;22;19907;-88
2022/11/16 12:53:43;;;;;;;;;;;;;;;12.15;100.00;99225.66;6266140;22;19911;-85
2022/11/16 12:56:08;;;;;;;;;;;;;;;12.08;100.00;99230.13;6294454;22;19954;-85
2022/11/16 12:58:49;;;;;;;;;;;;;;;12.06;100.00;99226.88;6292808;22;20337;-86
2022/11/16 13:01:32;;;;;;;;;;;;;;;12.03;100.00;99216.66;6290035;22;19918;-85
2022/11/16 13:04:03;;;;;;;;;;;;;;;12.23;100.00;99217.50;6267798;22;19911;-87
2022/11/16 13:06:36;;;;;;;;;;;;;;;12.21;100.00;99219.53;6294573;22;19988;-82
2022/11/16 13:09:15;;;;;;;;;;;;;;;12.13;100.00;99206.47;6299990;22;19921;-85
2022/11/16 13:12:00;;;;;;;;;;;;;;;12.00;100.00;99211.75;6250857;22;19912;-87
2022/11/16 13:14:34;;;;;;;;;;;;;;;12.14;100.00;99206.25;6298059;22;19911;-85
2022/11/16 13:17:00;;;;;;;;;;;;;;;12.01;100.00;99206.22;6299798;22;19911;-85
2022/11/16 13:19:27;;;;;;;;;;;;;;;12.01;100.00;99206.22;6297504;22;19957;-89
2022/11/16 13:22:19;;;;;;;;;;;;;;;11.83;100.00;99203.38;6304427;22;19938;-85
2022/11/16 13:24:44;;;;;;;;;;;;;;;11.84;100.00;99208.47;6242177;22;19899;-83
2022/11/16 13:27:32;;;;;;;;;;;;;;;11.97;100.00;99206.81;6251652;22;20108;-85
2022/11/16 13:30:18;;;;;;;;;;;;;;;11.93;100.00;99211.75;6303034;22;19957;-87
2022/11/16 13:32:50;;;;;;;;;;;;;;;11.97;100.00;99217.44;6277779;22;19922;-82
2022/11/16 13:35:24;;;;;;;;;;;;;;;11.87;100.00;99213.38;6302527;22;19915;-79
2022/11/16 13:37:51;;;;;;;;;;;;;;;12.11;100.00;99211.13;6278143;22;19922;-87
2022/11/16 13:40:32;;;;;;;;;;;;;;;12.02;100.00;99215.03;6304739;22;19891;-84
2022/11/16 13:43:03;;;;;;;;;;;;;;;11.90;100.00;99212.97;6275924;22;19915;-88
2022/11/16 13:45:39;;;;;;;;;;;;;;;11.69;100.00;99210.47;6299938;22;19902;-83
2022/11/16 13:48:24;;;;;;;;;;;;;;;11.68;100.00;99208.00;6302275;22;19911;-88
2022/11/16 13:50:59;;;;;;;;;;;;;;;11.67;100.00;99203.69;6300244;22;20441;-89
2022/11/16 13:54:03;;;;;;;;;;;;;;;11.70;100.00;99206.78;6272847;22;19967;-86